sensor_id;sensor_type;location;lat;lon;timestamp;pressure;altitude;pressure_sealevel;temperature;humidity
39897;BME280;25567;48.276;14.242;2022-07-24T00:02:19;98719.19;;;19.82;89.02
39897;BME280;25567;48.276;14.242;2022-07-24T00:04:50;98715.97;;;19.86;88.95
39897;BME280;25567;48.276;14.242;2022-07-24T00:07:19;98723.44;;;19.89;88.86
39897;BME280;25567;48.276;14.242;2022-07-24T00:09:46;98724.56;;;19.82;88.67
39897;BME280;25567;48.276;14.242;2022-07-24T00:12:13;98719.44;;;19.86;88.64
39897;BME280;25567;48.276;14.242;2022-07-24T00:14:40;98715.66;;;19.87;88.90
39897;BME280;25567;48.276;14.242;2022-07-24T00:17:06;98718.16;;;19.73;89.90
39897;BME280;25567;48.276;14.242;2022-07-24T00:19:33;98727.84;;;19.74;89.08
39897;BME280;25567;48.276;14.242;2022-07-24T00:22:00;98731.38;;;19.75;88.81
39897;BME280;25567;48.276;14.242;2022-07-24T00:24:29;98733.06;;;19.65;89.82
39897;BME280;25567;48.276;14.242;2022-07-24T00:26:56;98741.91;;;19.66;89.94
39897;BME280;25567;48.276;14.242;2022-07-24T00:29:22;98731.44;;;19.64;90.09
39897;BME280;25567;48.276;14.242;2022-07-24T00:31:49;98739.44;;;19.75;90.13
39897;BME280;25567;48.276;14.242;2022-07-24T00:34:16;98727.28;;;19.77;90.09
39897;BME280;25567;48.276;14.242;2022-07-24T00:36:42;98731.88;;;19.77;89.86
39897;BME280;25567;48.276;14.242;2022-07-24T00:39:10;98729.25;;;19.66;89.60
39897;BME280;25567;48.276;14.242;2022-07-24T00:41:37;98735.97;;;19.69;89.79
39897;BME280;25567;48.276;14.242;2022-07-24T00:44:08;98738.47;;;19.60;90.81
39897;BME280;25567;48.276;14.242;2022-07-24T00:46:37;98732.88;;;19.52;90.14
39897;BME280;25567;48.276;14.242;2022-07-24T00:49:07;98732.94;;;19.41;91.22
39897;BME280;25567;48.276;14.242;2022-07-24T00:51:46;98731.16;;;19.26;92.72
39897;BME280;25567;48.276;14.242;2022-07-24T00:54:14;98726.91;;;19.20;93.78
39897;BME280;25567;48.276;14.242;2022-07-24T00:56:42;98725.41;;;19.04;94.03
39897;BME280;25567;48.276;14.242;2022-07-24T00:59:09;98732.59;;;19.13;93.60
39897;BME280;25567;48.276;14.242;2022-07-24T01:01:37;98727.25;;;19.03;94.45
39897;BME280;25567;48.276;14.242;2022-07-24T01:04:04;98731.03;;;19.07;94.88
39897;BME280;25567;48.276;14.242;2022-07-24T01:06:31;98728.28;;;19.12;94.80
39897;BME280;25567;48.276;14.242;2022-07-24T01:08:57;98731.75;;;19.18;94.54
39897;BME280;25567;48.276;14.242;2022-07-24T01:11:25;98732.06;;;19.11;91.89
39897;BME280;25567;48.276;14.242;2022-07-24T01:13:52;98732.59;;;19.08;92.08
39897;BME280;25567;48.276;14.242;2022-07-24T01:16:19;98737.78;;;18.99;92.56
39897;BME280;25567;48.276;14.242;2022-07-24T01:18:45;98734.03;;;19.00;92.47
39897;BME280;25567;48.276;14.242;2022-07-24T01:21:12;98732.94;;;18.96;92.33
39897;BME280;25567;48.276;14.242;2022-07-24T01:23:39;98737.31;;;18.77;94.43
39897;BME280;25567;48.276;14.242;2022-07-24T01:26:07;98731.44;;;18.70;94.73
39897;BME280;25567;48.276;14.242;2022-07-24T01:28:35;98728.75;;;18.70;95.45
39897;BME280;25567;48.276;14.242;2022-07-24T01:31:02;98726.03;;;18.75;94.10
39897;BME280;25567;48.276;14.242;2022-07-24T01:33:30;98736.78;;;18.75;93.06
39897;BME280;25567;48.276;14.242;2022-07-24T01:35:56;98731.69;;;18.73;93.90
39897;BME280;25567;48.276;14.242;2022-07-24T01:38:24;98737.88;;;18.68;94.23
39897;BME280;25567;48.276;14.242;2022-07-24T01:40:50;98730.06;;;18.72;94.07
39897;BME280;25567;48.276;14.242;2022-07-24T01:43:17;98728.22;;;18.67;95.13
39897;BME280;25567;48.276;14.242;2022-07-24T01:45:44;98728.75;;;18.70;95.05
39897;BME280;25567;48.276;14.242;2022-07-24T01:48:11;98722.88;;;18.62;95.67
39897;BME280;25567;48.276;14.242;2022-07-24T01:50:38;98727.72;;;18.55;96.62
39897;BME280;25567;48.276;14.242;2022-07-24T01:53:04;98730.16;;;18.52;96.73
39897;BME280;25567;48.276;14.242;2022-07-24T01:55:31;98727.50;;;18.46;95.79
39897;BME280;25567;48.276;14.242;2022-07-24T01:57:58;98731.00;;;18.31;95.26
39897;BME280;25567;48.276;14.242;2022-07-24T02:00:26;98731.53;;;18.39;94.94
39897;BME280;25567;48.276;14.242;2022-07-24T02:02:52;98724.28;;;18.44;95.56
39897;BME280;25567;48.276;14.242;2022-07-24T02:05:19;98723.19;;;18.45;95.85
39897;BME280;25567;48.276;14.242;2022-07-24T02:07:54;98716.75;;;18.46;94.92
39897;BME280;25567;48.276;14.242;2022-07-24T02:10:21;98719.19;;;18.38;94.44
39897;BME280;25567;48.276;14.242;2022-07-24T02:12:48;98718.41;;;18.27;94.70
39897;BME280;25567;48.276;14.242;2022-07-24T02:15:15;98718.41;;;18.27;95.17
39897;BME280;25567;48.276;14.242;2022-07-24T02:17:47;98715.47;;;18.28;95.32
39897;BME280;25567;48.276;14.242;2022-07-24T02:20:14;98715.75;;;18.22;94.97
39897;BME280;25567;48.276;14.242;2022-07-24T02:22:41;98712.00;;;18.17;95.38
39897;BME280;25567;48.276;14.242;2022-07-24T02:25:09;98707.44;;;18.13;95.45
39897;BME280;25567;48.276;14.242;2022-07-24T02:27:37;98705.84;;;17.91;97.97
39897;BME280;25567;48.276;14.242;2022-07-24T02:30:07;98701.84;;;17.94;98.35
39897;BME280;25567;48.276;14.242;2022-07-24T02:32:34;98708.25;;;17.98;97.70
39897;BME280;25567;48.276;14.242;2022-07-24T02:35:01;98702.91;;;17.93;97.80
39897;BME280;25567;48.276;14.242;2022-07-24T02:37:37;98711.19;;;17.91;98.23
39897;BME280;25567;48.276;14.242;2022-07-24T02:40:06;98708.00;;;17.89;98.42
39897;BME280;25567;48.276;14.242;2022-07-24T02:42:34;98714.72;;;17.87;99.08
39897;BME280;25567;48.276;14.242;2022-07-24T02:45:01;98723.00;;;17.85;99.01
39897;BME280;25567;48.276;14.242;2022-07-24T02:47:28;98714.97;;;17.80;99.78
39897;BME280;25567;48.276;14.242;2022-07-24T02:49:55;98724.09;;;17.84;100.00
39897;BME280;25567;48.276;14.242;2022-07-24T02:52:21;98720.34;;;17.80;100.00
39897;BME280;25567;48.276;14.242;2022-07-24T02:54:48;98724.91;;;17.84;100.00
39897;BME280;25567;48.276;14.242;2022-07-24T02:57:15;98731.88;;;17.86;98.98
39897;BME280;25567;48.276;14.242;2022-07-24T02:59:42;98723.81;;;17.86;98.47
39897;BME280;25567;48.276;14.242;2022-07-24T03:02:11;98727.06;;;17.82;98.51
39897;BME280;25567;48.276;14.242;2022-07-24T03:04:38;98729.47;;;17.84;98.84
39897;BME280;25567;48.276;14.242;2022-07-24T03:07:05;98734.84;;;17.84;98.34
39897;BME280;25567;48.276;14.242;2022-07-24T03:09:31;98731.59;;;17.82;97.68
39897;BME280;25567;48.276;14.242;2022-07-24T03:11:58;98734.28;;;17.77;97.78
39897;BME280;25567;48.276;14.242;2022-07-24T03:14:25;98739.13;;;17.75;98.39
39897;BME280;25567;48.276;14.242;2022-07-24T03:16:52;98739.13;;;17.75;97.93
39897;BME280;25567;48.276;14.242;2022-07-24T03:19:19;98737.22;;;17.70;97.36
39897;BME280;25567;48.276;14.242;2022-07-24T03:21:46;98743.13;;;17.57;97.52
39897;BME280;25567;48.276;14.242;2022-07-24T03:24:15;98739.66;;;17.51;98.10
39897;BME280;25567;48.276;14.242;2022-07-24T03:26:42;98741.00;;;17.48;99.22
39897;BME280;25567;48.276;14.242;2022-07-24T03:29:09;98744.47;;;17.49;99.67
39897;BME280;25567;48.276;14.242;2022-07-24T03:31:35;98751.72;;;17.48;100.00
39897;BME280;25567;48.276;14.242;2022-07-24T03:34:02;98741.53;;;17.40;100.00
39897;BME280;25567;48.276;14.242;2022-07-24T03:36:29;98744.44;;;17.44;100.00
39897;BME280;25567;48.276;14.242;2022-07-24T03:38:56;98746.06;;;17.45;100.00
39897;BME280;25567;48.276;14.242;2022-07-24T03:41:23;98755.97;;;17.34;100.00
39897;BME280;25567;48.276;14.242;2022-07-24T03:43:50;98756.78;;;17.40;100.00
39897;BME280;25567;48.276;14.242;2022-07-24T03:46:20;98762.44;;;17.43;100.00
39897;BME280;25567;48.276;14.242;2022-07-24T03:48:47;98765.63;;;17.50;100.00
39897;BME280;25567;48.276;14.242;2022-07-24T03:51:14;98762.44;;;17.54;100.00
39897;BME280;25567;48.276;14.242;2022-07-24T03:53:44;98771.00;;;17.50;100.00
39897;BME280;25567;48.276;14.242;2022-07-24T03:56:12;98766.47;;;17.46;100.00
39897;BME280;25567;48.276;14.242;2022-07-24T03:58:39;98772.09;;;17.49;100.00
39897;BME280;25567;48.276;14.242;2022-07-24T04:01:07;98772.88;;;17.45;99.88
39897;BME280;25567;48.276;14.242;2022-07-24T04:03:35;98770.75;;;17.47;99.46
39897;BME280;25567;48.276;14.242;2022-07-24T04:06:04;98776.09;;;17.42;100.00
39897;BME280;25567;48.276;14.242;2022-07-24T04:08:32;98775.84;;;17.43;100.00
39897;BME280;25567;48.276;14.242;2022-07-24T04:10:59;98777.97;;;17.41;100.00
39897;BME280;25567;48.276;14.242;2022-07-24T04:13:29;98780.41;;;17.43;100.00
39897;BME280;25567;48.276;14.242;2022-07-24T04:15:57;98775.53;;;17.34;100.00
39897;BME280;25567;48.276;14.242;2022-07-24T04:18:25;98779.28;;;17.28;100.00
39897;BME280;25567;48.276;14.242;2022-07-24T04:20:52;98778.50;;;17.33;100.00
39897;BME280;25567;48.276;14.242;2022-07-24T04:23:19;98786.00;;;17.41;100.00
39897;BME280;25567;48.276;14.242;2022-07-24T04:25:46;98788.97;;;17.45;100.00
39897;BME280;25567;48.276;14.242;2022-07-24T04:28:13;98796.19;;;17.39;100.00
39897;BME280;25567;48.276;14.242;2022-07-24T04:30:40;98799.41;;;17.41;100.00
39897;BME280;25567;48.276;14.242;2022-07-24T04:33:07;98791.38;;;17.41;100.00
39897;BME280;25567;48.276;14.242;2022-07-24T04:35:34;98802.09;;;17.41;100.00
39897;BME280;25567;48.276;14.242;2022-07-24T04:38:01;98794.31;;;17.40;100.00
39897;BME280;25567;48.276;14.242;2022-07-24T04:40:28;98799.69;;;17.45;100.00
39897;BME280;25567;48.276;14.242;2022-07-24T04:42:55;98797.28;;;17.43;100.00
39897;BME280;25567;48.276;14.242;2022-07-24T04:45:22;98802.94;;;17.47;100.00
39897;BME280;25567;48.276;14.242;2022-07-24T04:47:49;98810.72;;;17.54;100.00
39897;BME280;25567;48.276;14.242;2022-07-24T04:50:16;98806.94;;;17.60;100.00
39897;BME280;25567;48.276;14.242;2022-07-24T04:52:43;98810.47;;;17.65;100.00
39897;BME280;25567;48.276;14.242;2022-07-24T04:55:10;98808.06;;;17.64;100.00
39897;BME280;25567;48.276;14.242;2022-07-24T04:57:37;98811.00;;;17.67;100.00
39897;BME280;25567;48.276;14.242;2022-07-24T05:00:06;98809.13;;;17.68;100.00
39897;BME280;25567;48.276;14.242;2022-07-24T05:02:33;98814.75;;;17.77;100.00
39897;BME280;25567;48.276;14.242;2022-07-24T05:05:01;98814.50;;;17.78;100.00
39897;BME280;25567;48.276;14.242;2022-07-24T05:07:28;98812.91;;;17.82;100.00
39897;BME280;25567;48.276;14.242;2022-07-24T05:09:57;98812.63;;;17.84;100.00
39897;BME280;25567;48.276;14.242;2022-07-24T05:12:25;98813.75;;;17.93;100.00
39897;BME280;25567;48.276;14.242;2022-07-24T05:14:52;98811.59;;;17.95;100.00
39897;BME280;25567;48.276;14.242;2022-07-24T05:17:19;98813.19;;;18.02;100.00
39897;BME280;25567;48.276;14.242;2022-07-24T05:19:46;98809.69;;;18.06;100.00
39897;BME280;25567;48.276;14.242;2022-07-24T05:22:12;98816.97;;;18.11;100.00
39897;BME280;25567;48.276;14.242;2022-07-24T05:24:39;98809.97;;;18.20;100.00
39897;BME280;25567;48.276;14.242;2022-07-24T05:27:06;98819.88;;;18.30;100.00
39897;BME280;25567;48.276;14.242;2022-07-24T05:29:38;98819.09;;;18.40;100.00
39897;BME280;25567;48.276;14.242;2022-07-24T05:32:07;98829.28;;;18.48;100.00
39897;BME280;25567;48.276;14.242;2022-07-24T05:34:34;98834.63;;;18.53;100.00
39897;BME280;25567;48.276;14.242;2022-07-24T05:37:06;98826.81;;;18.62;100.00
39897;BME280;25567;48.276;14.242;2022-07-24T05:39:33;98831.66;;;18.65;100.00
39897;BME280;25567;48.276;14.242;2022-07-24T05:42:00;98828.41;;;18.68;100.00
39897;BME280;25567;48.276;14.242;2022-07-24T05:44:27;98833.50;;;18.75;100.00
39897;BME280;25567;48.276;14.242;2022-07-24T05:46:54;98831.59;;;18.80;100.00
39897;BME280;25567;48.276;14.242;2022-07-24T05:49:20;98829.75;;;18.91;100.00
39897;BME280;25567;48.276;14.242;2022-07-24T05:51:47;98833.19;;;19.02;100.00
39897;BME280;25567;48.276;14.242;2022-07-24T05:54:14;98828.06;;;19.06;100.00
39897;BME280;25567;48.276;14.242;2022-07-24T05:56:41;98831.44;;;19.27;100.00
39897;BME280;25567;48.276;14.242;2022-07-24T05:59:07;98837.66;;;19.27;100.00
39897;BME280;25567;48.276;14.242;2022-07-24T06:01:35;98837.13;;;19.25;100.00
39897;BME280;25567;48.276;14.242;2022-07-24T06:04:02;98831.44;;;19.32;100.00
39897;BME280;25567;48.276;14.242;2022-07-24T06:06:28;98834.34;;;19.41;100.00
39897;BME280;25567;48.276;14.242;2022-07-24T06:08:55;98829.22;;;19.44;100.00
39897;BME280;25567;48.276;14.242;2022-07-24T06:11:22;98833.47;;;19.50;99.81
39897;BME280;25567;48.276;14.242;2022-07-24T06:13:50;98833.47;;;19.56;100.00
39897;BME280;25567;48.276;14.242;2022-07-24T06:16:17;98822.09;;;19.64;99.75
39897;BME280;25567;48.276;14.242;2022-07-24T06:18:44;98827.44;;;19.69;99.43
39897;BME280;25567;48.276;14.242;2022-07-24T06:21:11;98827.38;;;19.79;99.37
39897;BME280;25567;48.276;14.242;2022-07-24T06:23:38;98825.97;;;19.92;98.00
39897;BME280;25567;48.276;14.242;2022-07-24T06:26:04;98832.81;;;20.14;98.09
39897;BME280;25567;48.276;14.242;2022-07-24T06:28:31;98830.69;;;20.11;94.76
39897;BME280;25567;48.276;14.242;2022-07-24T06:30:58;98828.69;;;20.22;96.04
39897;BME280;25567;48.276;14.242;2022-07-24T06:33:25;98829.22;;;20.24;94.71
39897;BME280;25567;48.276;14.242;2022-07-24T06:35:52;98822.41;;;20.31;95.80
39897;BME280;25567;48.276;14.242;2022-07-24T06:38:18;98820.50;;;20.37;96.43
39897;BME280;25567;48.276;14.242;2022-07-24T06:40:45;98826.28;;;20.49;95.60
39897;BME280;25567;48.276;14.242;2022-07-24T06:43:12;98821.69;;;20.50;92.76
39897;BME280;25567;48.276;14.242;2022-07-24T06:45:38;98819.78;;;20.56;93.21
39897;BME280;25567;48.276;14.242;2022-07-24T06:48:05;98824.53;;;20.64;92.26
39897;BME280;25567;48.276;14.242;2022-07-24T06:50:32;98823.44;;;20.65;91.62
39897;BME280;25567;48.276;14.242;2022-07-24T06:52:59;98820.97;;;20.69;90.92
39897;BME280;25567;48.276;14.242;2022-07-24T06:55:26;98819.56;;;20.76;91.10
39897;BME280;25567;48.276;14.242;2022-07-24T06:57:53;98825.69;;;20.82;90.30
39897;BME280;25567;48.276;14.242;2022-07-24T07:00:19;98821.34;;;20.86;90.83
39897;BME280;25567;48.276;14.242;2022-07-24T07:02:46;98829.09;;;20.93;90.35
39897;BME280;25567;48.276;14.242;2022-07-24T07:05:13;98822.13;;;21.11;90.75
39897;BME280;25567;48.276;14.242;2022-07-24T07:07:40;98817.56;;;21.11;88.77
39897;BME280;25567;48.276;14.242;2022-07-24T07:10:07;98817.56;;;21.11;87.30
39897;BME280;25567;48.276;14.242;2022-07-24T07:12:34;98822.28;;;21.20;87.19
39897;BME280;25567;48.276;14.242;2022-07-24T07:15:06;98821.72;;;21.23;86.75
39897;BME280;25567;48.276;14.242;2022-07-24T07:17:33;98822.00;;;21.21;86.22
39897;BME280;25567;48.276;14.242;2022-07-24T07:20:00;98818.41;;;21.26;85.60
39897;BME280;25567;48.276;14.242;2022-07-24T07:22:26;98818.59;;;21.35;85.48
39897;BME280;25567;48.276;14.242;2022-07-24T07:24:53;98813.63;;;21.42;85.27
39897;BME280;25567;48.276;14.242;2022-07-24T07:27:20;98814.56;;;21.51;85.19
39897;BME280;25567;48.276;14.242;2022-07-24T07:29:46;98816.66;;;21.59;84.91
39897;BME280;25567;48.276;14.242;2022-07-24T07:32:13;98812.78;;;21.65;84.45
39897;BME280;25567;48.276;14.242;2022-07-24T07:34:40;98822.94;;;21.74;84.18
39897;BME280;25567;48.276;14.242;2022-07-24T07:37:06;98820.03;;;22.03;83.33
39897;BME280;25567;48.276;14.242;2022-07-24T07:39:33;98809.69;;;22.24;81.96
39897;BME280;25567;48.276;14.242;2022-07-24T07:42:00;98813.09;;;22.30;83.49
39897;BME280;25567;48.276;14.242;2022-07-24T07:44:27;98807.53;;;22.40;82.40
39897;BME280;25567;48.276;14.242;2022-07-24T07:46:57;98820.38;;;22.48;82.94
39897;BME280;25567;48.276;14.242;2022-07-24T07:49:24;98824.84;;;22.53;82.95
39897;BME280;25567;48.276;14.242;2022-07-24T07:51:50;98815.34;;;22.56;83.17
39897;BME280;25567;48.276;14.242;2022-07-24T07:54:19;98828.47;;;22.62;82.87
39897;BME280;25567;48.276;14.242;2022-07-24T07:56:45;98824.59;;;22.82;81.91
39897;BME280;25567;48.276;14.242;2022-07-24T07:59:12;98826.97;;;23.12;83.41
39897;BME280;25567;48.276;14.242;2022-07-24T08:01:39;98825.06;;;23.12;80.60
39897;BME280;25567;48.276;14.242;2022-07-24T08:04:06;98825.19;;;23.21;79.74
39897;BME280;25567;48.276;14.242;2022-07-24T08:06:32;98824.78;;;23.28;80.91
39897;BME280;25567;48.276;14.242;2022-07-24T08:08:59;98820.94;;;23.43;80.61
39897;BME280;25567;48.276;14.242;2022-07-24T08:11:27;98823.63;;;23.43;78.38
39897;BME280;25567;48.276;14.242;2022-07-24T08:13:54;98823.53;;;23.48;78.47
39897;BME280;25567;48.276;14.242;2022-07-24T08:16:20;98817.88;;;23.58;80.06
39897;BME280;25567;48.276;14.242;2022-07-24T08:18:47;98815.66;;;23.60;76.82
39897;BME280;25567;48.276;14.242;2022-07-24T08:21:28;98820.53;;;23.72;76.43
39897;BME280;25567;48.276;14.242;2022-07-24T08:23:55;98809.91;;;23.76;76.40
39897;BME280;25567;48.276;14.242;2022-07-24T08:26:21;98816.50;;;23.84;75.78
39897;BME280;25567;48.276;14.242;2022-07-24T08:28:48;98812.97;;;23.83;76.61
39897;BME280;25567;48.276;14.242;2022-07-24T08:31:15;98817.69;;;23.91;77.13
39897;BME280;25567;48.276;14.242;2022-07-24T08:33:42;98819.78;;;23.94;74.99
39897;BME280;25567;48.276;14.242;2022-07-24T08:36:08;98812.69;;;24.07;75.39
39897;BME280;25567;48.276;14.242;2022-07-24T08:38:35;98820.31;;;24.05;75.10
39897;BME280;25567;48.276;14.242;2022-07-24T08:41:02;98814.16;;;24.13;74.48
39897;BME280;25567;48.276;14.242;2022-07-24T08:43:29;98817.91;;;24.26;73.14
39897;BME280;25567;48.276;14.242;2022-07-24T08:45:55;98818.25;;;24.34;73.43
39897;BME280;25567;48.276;14.242;2022-07-24T08:48:23;98816.16;;;24.30;73.16
39897;BME280;25567;48.276;14.242;2022-07-24T08:50:51;98819.19;;;24.29;72.55
39897;BME280;25567;48.276;14.242;2022-07-24T08:53:20;98818.88;;;24.30;73.09
39897;BME280;25567;48.276;14.242;2022-07-24T08:55:48;98813.66;;;24.43;73.60
39897;BME280;25567;48.276;14.242;2022-07-24T08:58:15;98809.50;;;24.68;73.19
39897;BME280;25567;48.276;14.242;2022-07-24T09:00:42;98812.38;;;24.72;71.15
39897;BME280;25567;48.276;14.242;2022-07-24T09:03:09;98809.81;;;24.67;69.46
39897;BME280;25567;48.276;14.242;2022-07-24T09:05:52;98816.53;;;24.69;69.90
39897;BME280;25567;48.276;14.242;2022-07-24T09:08:20;98804.25;;;24.72;71.75
39897;BME280;25567;48.276;14.242;2022-07-24T09:10:57;98808.44;;;24.87;69.64
39897;BME280;25567;48.276;14.242;2022-07-24T09:13:31;98812.34;;;25.03;68.58
39897;BME280;25567;48.276;14.242;2022-07-24T09:16:18;98806.72;;;25.00;68.46
39897;BME280;25567;48.276;14.242;2022-07-24T09:18:51;98807.88;;;25.07;66.09
39897;BME280;25567;48.276;14.242;2022-07-24T09:21:35;98805.47;;;25.14;69.14
39897;BME280;25567;48.276;14.242;2022-07-24T09:24:19;98800.06;;;25.23;65.22
39897;BME280;25567;48.276;14.242;2022-07-24T09:26:49;98807.47;;;25.40;66.50
39897;BME280;25567;48.276;14.242;2022-07-24T09:29:18;98806.13;;;25.29;65.11
39897;BME280;25567;48.276;14.242;2022-07-24T09:31:53;98802.31;;;25.30;67.42
39897;BME280;25567;48.276;14.242;2022-07-24T09:34:22;98795.97;;;25.43;66.06
39897;BME280;25567;48.276;14.242;2022-07-24T09:37:02;98796.13;;;25.47;65.17
39897;BME280;25567;48.276;14.242;2022-07-24T09:39:31;98799.31;;;25.49;63.46
39897;BME280;25567;48.276;14.242;2022-07-24T09:42:00;98794.22;;;25.56;64.59
39897;BME280;25567;48.276;14.242;2022-07-24T09:44:27;98797.56;;;25.71;64.01
39897;BME280;25567;48.276;14.242;2022-07-24T09:47:00;98791.16;;;25.84;63.36
39897;BME280;25567;48.276;14.242;2022-07-24T09:49:27;98788.72;;;25.91;62.27
39897;BME280;25567;48.276;14.242;2022-07-24T09:52:12;98784.75;;;25.89;62.39
39897;BME280;25567;48.276;14.242;2022-07-24T09:54:44;98789.50;;;26.01;61.36
39897;BME280;25567;48.276;14.242;2022-07-24T09:57:23;98785.06;;;25.96;64.73
39897;BME280;25567;48.276;14.242;2022-07-24T09:59:57;98790.34;;;25.92;61.36
39897;BME280;25567;48.276;14.242;2022-07-24T10:02:28;98779.19;;;25.85;61.14
39897;BME280;25567;48.276;14.242;2022-07-24T10:04:58;98780.78;;;25.77;61.50
39897;BME280;25567;48.276;14.242;2022-07-24T10:07:27;98778.84;;;25.78;61.39
39897;BME280;25567;48.276;14.242;2022-07-24T10:09:57;98774.03;;;25.92;59.71
39897;BME280;25567;48.276;14.242;2022-07-24T10:12:26;98776.59;;;25.89;59.71
39897;BME280;25567;48.276;14.242;2022-07-24T10:14:55;98774.69;;;25.89;60.00
39897;BME280;25567;48.276;14.242;2022-07-24T10:17:33;98770.06;;;25.81;59.84
39897;BME280;25567;48.276;14.242;2022-07-24T10:20:03;98768.94;;;25.91;60.87
39897;BME280;25567;48.276;14.242;2022-07-24T10:23:02;98769.41;;;25.93;60.74
39897;BME280;25567;48.276;14.242;2022-07-24T10:25:30;98770.84;;;26.08;59.67
39897;BME280;25567;48.276;14.242;2022-07-24T10:28:08;98759.84;;;26.43;57.77
39897;BME280;25567;48.276;14.242;2022-07-24T10:30:40;98752.91;;;26.54;59.08
39897;BME280;25567;48.276;14.242;2022-07-24T10:33:15;98758.34;;;26.54;59.15
39897;BME280;25567;48.276;14.242;2022-07-24T10:35:43;98756.94;;;26.48;55.95
39897;BME280;25567;48.276;14.242;2022-07-24T10:38:17;98750.47;;;26.61;56.69
39897;BME280;25567;48.276;14.242;2022-07-24T10:40:50;98745.00;;;26.70;55.87
39897;BME280;25567;48.276;14.242;2022-07-24T10:43:18;98744.75;;;26.54;56.47
39897;BME280;25567;48.276;14.242;2022-07-24T10:46:10;98748.81;;;26.78;55.29
39897;BME280;25567;48.276;14.242;2022-07-24T10:48:35;98741.63;;;26.73;56.95
39897;BME280;25567;48.276;14.242;2022-07-24T10:51:08;98741.78;;;26.77;55.59
39897;BME280;25567;48.276;14.242;2022-07-24T10:56:19;98730.31;;;26.92;56.18
39897;BME280;25567;48.276;14.242;2022-07-24T11:01:31;98725.47;;;27.19;56.31
39897;BME280;25567;48.276;14.242;2022-07-24T11:03:59;98724.53;;;27.36;55.90
39897;BME280;25567;48.276;14.242;2022-07-24T11:09:26;98718.66;;;27.68;53.22
39897;BME280;25567;48.276;14.242;2022-07-24T11:14:46;98716.63;;;27.65;52.84
39897;BME280;25567;48.276;14.242;2022-07-24T11:20:13;98716.25;;;27.54;51.38
39897;BME280;25567;48.276;14.242;2022-07-24T11:22:45;98716.59;;;27.52;52.13
39897;BME280;25567;48.276;14.242;2022-07-24T11:27:47;98700.19;;;27.73;51.68
39897;BME280;25567;48.276;14.242;2022-07-24T11:30:15;98698.38;;;27.90;52.63
39897;BME280;25567;48.276;14.242;2022-07-24T11:32:43;98701.69;;;27.95;51.41
39897;BME280;25567;48.276;14.242;2022-07-24T11:35:10;98697.13;;;27.87;51.04
39897;BME280;25567;48.276;14.242;2022-07-24T11:37:38;98684.28;;;27.88;51.68
39897;BME280;25567;48.276;14.242;2022-07-24T11:40:06;98693.78;;;28.03;51.97
39897;BME280;25567;48.276;14.242;2022-07-24T11:42:34;98692.84;;;27.99;50.99
39897;BME280;25567;48.276;14.242;2022-07-24T11:45:03;98691.81;;;27.91;52.02
39897;BME280;25567;48.276;14.242;2022-07-24T11:47:33;98683.28;;;27.80;51.47
39897;BME280;25567;48.276;14.242;2022-07-24T11:50:03;98684.28;;;27.75;51.84
39897;BME280;25567;48.276;14.242;2022-07-24T11:52:37;98687.84;;;28.01;52.79
39897;BME280;25567;48.276;14.242;2022-07-24T11:55:06;98676.75;;;28.18;52.01
39897;BME280;25567;48.276;14.242;2022-07-24T11:57:44;98669.94;;;28.24;52.85
39897;BME280;25567;48.276;14.242;2022-07-24T12:00:31;98672.41;;;28.42;53.47
39897;BME280;25567;48.276;14.242;2022-07-24T12:02:59;98671.59;;;28.78;51.43
39897;BME280;25567;48.276;14.242;2022-07-24T12:07:58;98665.50;;;29.10;49.10
39897;BME280;25567;48.276;14.242;2022-07-24T12:10:27;98666.56;;;28.93;49.37
39897;BME280;25567;48.276;14.242;2022-07-24T12:12:55;98657.78;;;29.00;50.54
39897;BME280;25567;48.276;14.242;2022-07-24T12:15:24;98665.88;;;29.24;47.69
39897;BME280;25567;48.276;14.242;2022-07-24T12:20:29;98658.19;;;29.14;47.71
39897;BME280;25567;48.276;14.242;2022-07-24T12:22:57;98652.28;;;29.12;48.63
39897;BME280;25567;48.276;14.242;2022-07-24T12:25:25;98657.31;;;29.10;50.08
39897;BME280;25567;48.276;14.242;2022-07-24T12:28:08;98657.91;;;28.91;48.41
39897;BME280;25567;48.276;14.242;2022-07-24T12:30:38;98656.84;;;28.79;48.56
39897;BME280;25567;48.276;14.242;2022-07-24T12:33:20;98655.53;;;28.89;47.90
39897;BME280;25567;48.276;14.242;2022-07-24T12:36:05;98648.06;;;28.86;48.62
39897;BME280;25567;48.276;14.242;2022-07-24T12:38:37;98648.41;;;28.85;48.10
39897;BME280;25567;48.276;14.242;2022-07-24T12:43:32;98648.41;;;28.85;48.67
39897;BME280;25567;48.276;14.242;2022-07-24T12:46:14;98649.97;;;28.86;49.21
39897;BME280;25567;48.276;14.242;2022-07-24T12:48:57;98648.50;;;28.88;49.06
39897;BME280;25567;48.276;14.242;2022-07-24T12:51:24;98641.94;;;28.77;48.82
39897;BME280;25567;48.276;14.242;2022-07-24T12:53:54;98645.16;;;28.95;47.97
39897;BME280;25567;48.276;14.242;2022-07-24T12:56:21;98636.78;;;28.88;48.42
39897;BME280;25567;48.276;14.242;2022-07-24T12:58:54;98637.22;;;28.90;48.81
39897;BME280;25567;48.276;14.242;2022-07-24T13:01:21;98635.94;;;29.00;48.14
39897;BME280;25567;48.276;14.242;2022-07-24T13:03:50;98630.84;;;28.98;47.72
39897;BME280;25567;48.276;14.242;2022-07-24T13:06:18;98635.06;;;28.95;48.17
39897;BME280;25567;48.276;14.242;2022-07-24T13:08:45;98633.34;;;28.91;48.33
39897;BME280;25567;48.276;14.242;2022-07-24T13:11:12;98623.31;;;28.95;47.06
39897;BME280;25567;48.276;14.242;2022-07-24T13:13:38;98619.81;;;28.94;47.50
39897;BME280;25567;48.276;14.242;2022-07-24T13:16:05;98623.44;;;28.99;48.18
39897;BME280;25567;48.276;14.242;2022-07-24T13:18:32;98627.69;;;29.12;47.24
39897;BME280;25567;48.276;14.242;2022-07-24T13:20:59;98615.38;;;28.90;47.67